Time;durP1;ratioP1;P1;durP2;ratioP2;P2;SDS_P1;SDS_P2;PMS_P1;PMS_P2;Temp;Humidity;BMP_temperature;BMP_pressure;BME280_temperature;BME280_humidity;BME280_pressure;Samples;Min_cycle;Max_cycle;Signal;HPM_P1;HPM_P2
2023/08/13 00:01:27;;;;;;;3.50;3.20;;;;;;;;;;5031684;28;20671;-53
2023/08/13 00:03:53;;;;;;;3.23;3.00;;;;;;;;;;5031231;28;20655;-53
2023/08/13 00:06:19;;;;;;;3.67;3.37;;;;;;;;;;5013842;28;20211;-50
2023/08/13 00:08:45;;;;;;;3.90;3.00;;;;;;;;;;5030109;28;20702;-52
2023/08/13 00:11:11;;;;;;;3.97;3.20;;;;;;;;;;5031760;28;20176;-52
2023/08/13 00:13:41;;;;;;;3.47;3.17;;;;;;;;;;5031111;28;20270;-52
2023/08/13 00:16:08;;;;;;;3.53;3.20;;;;;;;;;;5031014;28;20233;-52
2023/08/13 00:18:34;;;;;;;3.27;3.00;;;;;;;;;;5031058;28;20628;-52
2023/08/13 00:21:00;;;;;;;3.40;3.10;;;;;;;;;;5031514;28;20672;-52
2023/08/13 00:23:26;;;;;;;3.40;3.10;;;;;;;;;;5030173;28;20237;-52
2023/08/13 00:25:52;;;;;;;3.10;2.87;;;;;;;;;;5031370;28;20180;-52
2023/08/13 00:28:18;;;;;;;3.17;2.97;;;;;;;;;;5031208;28;20517;-52
2023/08/13 00:30:45;;;;;;;3.47;3.17;;;;;;;;;;5031032;28;20673;-52
2023/08/13 00:33:11;;;;;;;4.67;3.77;;;;;;;;;;5030834;28;20176;-52
2023/08/13 00:35:37;;;;;;;3.67;3.37;;;;;;;;;;5030610;28;20722;-52
2023/08/13 00:38:03;;;;;;;3.60;3.30;;;;;;;;;;5030046;28;20515;-52
2023/08/13 00:40:29;;;;;;;3.97;3.50;;;;;;;;;;5029860;28;20184;-52
2023/08/13 00:42:55;;;;;;;3.77;2.93;;;;;;;;;;5030259;28;20211;-52
2023/08/13 00:45:21;;;;;;;3.57;3.27;;;;;;;;;;5030461;28;20177;-52
2023/08/13 00:47:47;;;;;;;3.87;3.47;;;;;;;;;;5030627;28;20627;-52
2023/08/13 00:50:13;;;;;;;4.13;3.67;;;;;;;;;;5030249;28;20170;-52
2023/08/13 00:52:39;;;;;;;3.47;3.20;;;;;;;;;;5030262;28;20816;-53
2023/08/13 00:55:06;;;;;;;4.43;3.20;;;;;;;;;;5029593;28;20722;-52
2023/08/13 00:57:32;;;;;;;5.13;3.63;;;;;;;;;;5030605;28;20187;-52
2023/08/13 00:59:58;;;;;;;3.50;3.20;;;;;;;;;;5024261;28;20241;-52
2023/08/13 01:02:24;;;;;;;3.57;3.17;;;;;;;;;;5010446;28;20254;-52
2023/08/13 01:04:50;;;;;;;3.60;3.30;;;;;;;;;;5010107;28;20184;-52
2023/08/13 01:07:31;;;;;;;3.70;3.40;;;;;;;;;;5009998;28;20169;-52
2023/08/13 01:09:57;;;;;;;3.30;3.00;;;;;;;;;;5009886;28;20710;-52
2023/08/13 01:12:27;;;;;;;3.90;3.60;;;;;;;;;;5010463;28;20640;-52
2023/08/13 01:14:53;;;;;;;3.97;3.23;;;;;;;;;;5029444;28;20190;-52
2023/08/13 01:17:20;;;;;;;3.47;3.20;;;;;;;;;;5029962;28;20181;-53
2023/08/13 01:19:46;;;;;;;4.73;3.93;;;;;;;;;;5029800;28;20324;-53
2023/08/13 01:22:12;;;;;;;4.10;3.37;;;;;;;;;;5029637;28;20198;-53
2023/08/13 01:24:38;;;;;;;4.10;3.70;;;;;;;;;;5029197;28;20196;-53
2023/08/13 01:27:22;;;;;;;4.43;3.57;;;;;;;;;;5030212;28;20182;-53
2023/08/13 01:29:48;;;;;;;4.63;2.93;;;;;;;;;;5029165;28;20183;-53
2023/08/13 01:32:15;;;;;;;3.93;3.40;;;;;;;;;;5029530;28;20294;-53
2023/08/13 01:34:42;;;;;;;5.03;4.23;;;;;;;;;;5029326;28;20186;-53
2023/08/13 01:37:08;;;;;;;7.53;3.83;;;;;;;;;;5029115;28;20261;-53
2023/08/13 01:39:35;;;;;;;3.73;3.30;;;;;;;;;;5029143;28;20190;-53
2023/08/13 01:42:01;;;;;;;4.00;3.60;;;;;;;;;;5029367;28;20206;-53
2023/08/13 01:44:27;;;;;;;4.07;3.47;;;;;;;;;;5029506;28;20170;-53
2023/08/13 01:46:53;;;;;;;4.70;4.30;;;;;;;;;;5011907;28;20573;-53
2023/08/13 01:49:19;;;;;;;5.00;3.30;;;;;;;;;;5029419;28;20284;-53
2023/08/13 01:51:46;;;;;;;6.03;3.73;;;;;;;;;;5028902;28;20232;-52
2023/08/13 01:54:12;;;;;;;3.17;2.87;;;;;;;;;;5028635;28;20503;-53
2023/08/13 01:56:39;;;;;;;3.83;3.27;;;;;;;;;;5029496;28;20641;-53
2023/08/13 01:59:05;;;;;;;4.23;3.30;;;;;;;;;;5010778;28;20170;-53
2023/08/13 02:01:31;;;;;;;3.90;3.30;;;;;;;;;;5011062;28;20214;-53
2023/08/13 02:03:57;;;;;;;3.77;3.47;;;;;;;;;;5008731;28;20631;-52
2023/08/13 02:06:23;;;;;;;3.83;3.30;;;;;;;;;;5009667;28;20212;-53
2023/08/13 02:08:49;;;;;;;3.90;3.00;;;;;;;;;;5008249;28;20263;-53
2023/08/13 02:11:15;;;;;;;3.50;3.20;;;;;;;;;;5010203;28;20178;-54
2023/08/13 02:13:41;;;;;;;3.97;3.50;;;;;;;;;;5017995;28;20208;-53
2023/08/13 02:16:07;;;;;;;3.23;2.93;;;;;;;;;;5029195;28;20248;-53
2023/08/13 02:18:33;;;;;;;3.60;3.30;;;;;;;;;;5029199;28;20180;-53
2023/08/13 02:20:59;;;;;;;3.67;3.37;;;;;;;;;;5029124;28;20218;-53
2023/08/13 02:23:25;;;;;;;3.60;3.20;;;;;;;;;;5028664;28;20197;-52
2023/08/13 02:25:53;;;;;;;3.47;3.17;;;;;;;;;;5011390;28;20782;-52
2023/08/13 02:28:19;;;;;;;3.37;3.03;;;;;;;;;;5011298;28;20298;-51
2023/08/13 02:30:45;;;;;;;3.33;3.00;;;;;;;;;;5028655;28;20356;-51
2023/08/13 02:33:11;;;;;;;5.10;3.10;;;;;;;;;;5029533;28;20565;-52
2023/08/13 02:35:37;;;;;;;3.73;3.43;;;;;;;;;;5028992;28;20654;-52
2023/08/13 02:38:03;;;;;;;3.87;2.93;;;;;;;;;;5028678;28;20232;-52
2023/08/13 02:40:29;;;;;;;4.57;3.50;;;;;;;;;;5028228;28;20635;-53
2023/08/13 02:42:55;;;;;;;2.90;2.70;;;;;;;;;;5028535;28;20220;-53
2023/08/13 02:45:21;;;;;;;3.30;2.80;;;;;;;;;;5028535;28;20179;-52
2023/08/13 02:47:47;;;;;;;5.73;3.23;;;;;;;;;;5028760;28;20188;-52
2023/08/13 02:50:13;;;;;;;3.30;3.00;;;;;;;;;;5028979;28;20266;-52
2023/08/13 02:52:39;;;;;;;4.13;2.83;;;;;;;;;;5028325;28;20194;-52
2023/08/13 02:55:05;;;;;;;3.83;2.80;;;;;;;;;;5028085;28;20181;-52
2023/08/13 02:57:32;;;;;;;3.43;3.13;;;;;;;;;;5028857;28;20677;-52
2023/08/13 02:59:58;;;;;;;3.30;2.50;;;;;;;;;;5022557;28;20205;-52
2023/08/13 03:02:24;;;;;;;3.67;3.00;;;;;;;;;;5020972;28;20235;-52
2023/08/13 03:04:50;;;;;;;3.23;2.93;;;;;;;;;;5028643;28;20197;-52
2023/08/13 03:07:16;;;;;;;3.07;2.77;;;;;;;;;;5028582;28;20167;-52
2023/08/13 03:09:42;;;;;;;4.07;3.03;;;;;;;;;;5028272;28;20233;-52
2023/08/13 03:12:09;;;;;;;3.77;3.20;;;;;;;;;;5028817;28;20588;-52
2023/08/13 03:14:35;;;;;;;3.30;3.00;;;;;;;;;;5028885;28;20264;-52
2023/08/13 03:17:01;;;;;;;4.07;3.63;;;;;;;;;;5032127;28;20193;-52
2023/08/13 03:19:27;;;;;;;3.10;2.63;;;;;;;;;;5032276;28;20191;-52
2023/08/13 03:21:53;;;;;;;4.27;2.97;;;;;;;;;;5031704;28;20207;-52
2023/08/13 03:24:19;;;;;;;2.93;2.67;;;;;;;;;;5031431;28;20230;-52
2023/08/13 03:26:45;;;;;;;4.03;3.00;;;;;;;;;;5032431;28;20183;-52
2023/08/13 03:29:11;;;;;;;3.63;3.17;;;;;;;;;;5031734;28;20190;-52
2023/08/13 03:31:37;;;;;;;4.40;4.00;;;;;;;;;;5032256;28;20206;-52
2023/08/13 03:34:03;;;;;;;3.50;3.00;;;;;;;;;;5031597;28;20403;-52
2023/08/13 03:36:29;;;;;;;4.67;3.43;;;;;;;;;;5031957;28;20179;-52
2023/08/13 03:38:55;;;;;;;3.20;2.90;;;;;;;;;;5030565;28;20201;-49
2023/08/13 03:41:21;;;;;;;3.20;2.90;;;;;;;;;;5032020;28;20209;-50
2023/08/13 03:43:47;;;;;;;4.23;2.90;;;;;;;;;;5013335;28;20194;-50
2023/08/13 03:46:13;;;;;;;3.77;3.10;;;;;;;;;;5032232;28;20649;-50
2023/08/13 03:48:39;;;;;;;3.97;2.90;;;;;;;;;;5031784;28;20173;-50
2023/08/13 03:51:05;;;;;;;3.47;2.83;;;;;;;;;;5031588;28;20539;-50
2023/08/13 03:53:31;;;;;;;3.43;2.83;;;;;;;;;;5030843;28;20178;-50
2023/08/13 03:55:57;;;;;;;3.33;2.90;;;;;;;;;;5031882;28;20200;-50
2023/08/13 03:58:24;;;;;;;4.83;3.07;;;;;;;;;;5031005;28;20186;-50
2023/08/13 04:00:50;;;;;;;3.00;2.40;;;;;;;;;;5018317;28;20197;-49
2023/08/13 04:03:16;;;;;;;4.07;3.00;;;;;;;;;;5011894;28;20713;-49
2023/08/13 04:05:43;;;;;;;2.80;2.60;;;;;;;;;;5011857;28;20534;-52
2023/08/13 04:08:09;;;;;;;5.03;2.80;;;;;;;;;;5011256;28;20194;-52
2023/08/13 04:10:35;;;;;;;5.13;2.97;;;;;;;;;;5011131;28;20197;-50
2023/08/13 04:13:01;;;;;;;3.20;2.70;;;;;;;;;;5013774;28;20178;-50
2023/08/13 04:15:28;;;;;;;5.30;2.97;;;;;;;;;;5030898;28;20182;-50
2023/08/13 04:17:55;;;;;;;4.93;3.17;;;;;;;;;;5029840;28;20190;-50
2023/08/13 04:20:21;;;;;;;3.47;2.73;;;;;;;;;;5029224;28;20272;-50
2023/08/13 04:22:48;;;;;;;2.93;2.63;;;;;;;;;;5030553;28;20212;-52
2023/08/13 04:25:14;;;;;;;3.93;2.70;;;;;;;;;;5030379;28;20212;-50
2023/08/13 04:27:40;;;;;;;5.30;3.33;;;;;;;;;;5030906;28;20614;-50
2023/08/13 04:30:06;;;;;;;3.80;2.53;;;;;;;;;;5030426;28;20174;-49
2023/08/13 04:32:32;;;;;;;3.03;2.73;;;;;;;;;;5012854;28;20185;-49
2023/08/13 04:34:59;;;;;;;5.63;2.90;;;;;;;;;;5030671;28;20256;-49
2023/08/13 04:37:25;;;;;;;3.23;2.60;;;;;;;;;;5030291;28;20320;-50
2023/08/13 04:39:51;;;;;;;3.60;2.60;;;;;;;;;;5030232;28;20273;-50
2023/08/13 04:42:17;;;;;;;3.30;3.00;;;;;;;;;;5031034;28;20572;-50
2023/08/13 04:44:43;;;;;;;3.00;2.50;;;;;;;;;;5030223;28;20186;-50
2023/08/13 04:47:09;;;;;;;4.03;2.40;;;;;;;;;;5030277;28;20239;-49
2023/08/13 04:49:35;;;;;;;4.17;2.47;;;;;;;;;;5030640;28;20186;-50
2023/08/13 04:52:02;;;;;;;3.80;3.10;;;;;;;;;;5029895;28;20224;-51
2023/08/13 04:54:28;;;;;;;2.67;2.30;;;;;;;;;;5029525;28;20290;-50
2023/08/13 04:56:54;;;;;;;4.47;2.80;;;;;;;;;;5030457;28;20235;-50
2023/08/13 04:59:20;;;;;;;3.33;2.90;;;;;;;;;;5011742;28;20676;-50
2023/08/13 05:01:46;;;;;;;3.53;2.90;;;;;;;;;;5010705;28;20294;-50
2023/08/13 05:04:12;;;;;;;2.77;2.57;;;;;;;;;;5010216;28;20206;-50
2023/08/13 05:06:38;;;;;;;3.30;3.00;;;;;;;;;;5010455;28;20207;-49
2023/08/13 05:09:04;;;;;;;2.60;2.40;;;;;;;;;;5009282;28;20175;-50
2023/08/13 05:11:30;;;;;;;2.60;2.40;;;;;;;;;;5010272;28;20182;-50
2023/08/13 05:13:56;;;;;;;3.72;2.65;;;;;;;;;;5014526;28;20429;-49
2023/08/13 05:16:23;;;;;;;4.03;3.00;;;;;;;;;;5029683;28;20268;-51
2023/08/13 05:18:49;;;;;;;3.50;2.97;;;;;;;;;;5029231;28;20324;-52
2023/08/13 05:21:15;;;;;;;4.23;2.60;;;;;;;;;;5030206;28;20209;-51
2023/08/13 05:23:41;;;;;;;3.23;2.57;;;;;;;;;;5028995;28;20174;-51
2023/08/13 05:26:08;;;;;;;3.03;2.53;;;;;;;;;;5012091;28;20178;-51
2023/08/13 05:28:34;;;;;;;5.37;2.53;;;;;;;;;;5029703;28;20313;-51
2023/08/13 05:31:03;;;;;;;4.57;2.40;;;;;;;;;;5029877;28;20733;-50
2023/08/13 05:33:29;;;;;;;2.60;2.40;;;;;;;;;;5011563;28;20276;-50
2023/08/13 05:35:55;;;;;;;6.93;2.90;;;;;;;;;;5029847;28;20649;-50
2023/08/13 05:38:21;;;;;;;3.10;2.80;;;;;;;;;;5028478;28;20229;-51
2023/08/13 05:40:48;;;;;;;3.07;2.77;;;;;;;;;;5028913;28;20189;-50
2023/08/13 05:43:14;;;;;;;3.40;2.10;;;;;;;;;;5029887;28;20213;-51
2023/08/13 05:45:41;;;;;;;3.83;2.90;;;;;;;;;;5029170;28;20186;-51
2023/08/13 05:48:07;;;;;;;3.20;2.70;;;;;;;;;;5029067;28;20181;-51
2023/08/13 05:50:33;;;;;;;2.60;2.40;;;;;;;;;;5029344;28;20174;-51
2023/08/13 05:52:59;;;;;;;3.20;2.40;;;;;;;;;;5029258;28;20514;-52
2023/08/13 05:55:25;;;;;;;3.90;2.53;;;;;;;;;;5010883;28;20190;-51
2023/08/13 05:57:52;;;;;;;2.67;2.47;;;;;;;;;;5011181;28;20696;-51
2023/08/13 06:00:18;;;;;;;2.73;2.40;;;;;;;;;;5029105;28;20201;-51
2023/08/13 06:02:44;;;;;;;4.27;2.93;;;;;;;;;;5028804;28;20216;-51
2023/08/13 06:05:11;;;;;;;2.77;2.53;;;;;;;;;;5029199;28;20182;-52
2023/08/13 06:07:38;;;;;;;2.83;2.23;;;;;;;;;;5029262;28;20676;-51
2023/08/13 06:10:05;;;;;;;3.67;2.50;;;;;;;;;;5028348;28;20166;-51
2023/08/13 06:12:31;;;;;;;2.93;2.53;;;;;;;;;;5029128;28;20189;-51
2023/08/13 06:14:58;;;;;;;2.97;2.23;;;;;;;;;;5028996;28;20182;-51
2023/08/13 06:17:24;;;;;;;3.70;2.80;;;;;;;;;;5029164;28;20190;-51
2023/08/13 06:19:50;;;;;;;3.23;2.77;;;;;;;;;;5028623;28;20625;-50
2023/08/13 06:22:16;;;;;;;3.00;2.70;;;;;;;;;;5028900;28;20771;-50
2023/08/13 06:24:43;;;;;;;3.30;2.70;;;;;;;;;;5028437;28;20205;-50
2023/08/13 06:27:09;;;;;;;4.90;2.77;;;;;;;;;;5010491;28;20186;-50
2023/08/13 06:29:35;;;;;;;3.30;2.53;;;;;;;;;;5029039;28;20221;-50
2023/08/13 06:32:01;;;;;;;3.10;2.53;;;;;;;;;;5028935;28;20217;-50
2023/08/13 06:34:28;;;;;;;3.07;2.70;;;;;;;;;;5028618;28;20201;-50
2023/08/13 06:36:54;;;;;;;2.97;2.67;;;;;;;;;;5028332;28;20248;-50
2023/08/13 06:39:21;;;;;;;3.53;3.07;;;;;;;;;;5028126;28;20217;-49
2023/08/13 06:41:48;;;;;;;3.90;2.73;;;;;;;;;;5028825;28;20202;-51
2023/08/13 06:44:21;;;;;;;3.93;2.73;;;;;;;;;;5028448;28;20194;-50
2023/08/13 06:46:47;;;;;;;4.43;2.80;;;;;;;;;;5028920;28;20652;-51
2023/08/13 06:49:13;;;;;;;4.10;2.40;;;;;;;;;;5030401;28;20676;-51
2023/08/13 06:51:40;;;;;;;2.87;2.53;;;;;;;;;;5033125;28;20178;-51
2023/08/13 06:54:07;;;;;;;4.20;2.80;;;;;;;;;;5031189;28;20186;-51
2023/08/13 06:56:35;;;;;;;5.27;3.03;;;;;;;;;;5033176;28;20547;-50
2023/08/13 06:59:01;;;;;;;3.40;2.83;;;;;;;;;;5031867;28;20189;-51
2023/08/13 07:01:27;;;;;;;3.10;2.53;;;;;;;;;;5032533;28;20213;-50
2023/08/13 07:03:53;;;;;;;4.03;2.70;;;;;;;;;;5032159;28;20209;-51
2023/08/13 07:06:19;;;;;;;4.53;2.63;;;;;;;;;;5032347;28;20177;-51
2023/08/13 07:08:45;;;;;;;3.47;2.90;;;;;;;;;;5031494;28;20166;-51
2023/08/13 07:11:12;;;;;;;2.90;2.60;;;;;;;;;;5032727;28;20170;-51
2023/08/13 07:13:38;;;;;;;4.83;2.87;;;;;;;;;;5031987;28;20223;-51
2023/08/13 07:16:04;;;;;;;4.50;2.73;;;;;;;;;;5032468;28;20607;-51
2023/08/13 07:18:30;;;;;;;2.87;2.60;;;;;;;;;;5032092;28;20178;-49
2023/08/13 07:20:56;;;;;;;3.20;2.90;;;;;;;;;;5031800;28;20227;-51
2023/08/13 07:23:22;;;;;;;5.07;2.80;;;;;;;;;;5032274;28;20201;-51
2023/08/13 07:25:49;;;;;;;4.83;3.00;;;;;;;;;;5031735;28;20520;-52
2023/08/13 07:28:15;;;;;;;4.03;2.70;;;;;;;;;;5032417;28;20249;-52
2023/08/13 07:30:43;;;;;;;4.10;2.43;;;;;;;;;;5031755;28;20216;-51
2023/08/13 07:33:09;;;;;;;6.17;2.70;;;;;;;;;;5032044;28;20186;-52
2023/08/13 07:35:35;;;;;;;3.23;2.70;;;;;;;;;;5031812;28;20204;-51
2023/08/13 07:38:01;;;;;;;4.47;2.97;;;;;;;;;;5031508;28;20229;-51
2023/08/13 07:40:27;;;;;;;4.03;3.07;;;;;;;;;;5031162;28;20401;-51
2023/08/13 07:42:58;;;;;;;3.67;2.90;;;;;;;;;;5031606;28;20625;-51
2023/08/13 07:45:24;;;;;;;3.37;2.70;;;;;;;;;;5031840;28;20655;-51
2023/08/13 07:47:51;;;;;;;3.57;2.93;;;;;;;;;;5031203;28;20546;-51
2023/08/13 07:50:17;;;;;;;4.47;2.93;;;;;;;;;;5031934;28;20695;-51
2023/08/13 07:52:43;;;;;;;3.30;3.00;;;;;;;;;;5031504;28;20182;-52
2023/08/13 07:55:10;;;;;;;6.77;3.07;;;;;;;;;;5030763;28;20193;-52
2023/08/13 07:57:36;;;;;;;4.03;2.90;;;;;;;;;;5031861;28;20178;-52
2023/08/13 08:00:05;;;;;;;3.77;2.77;;;;;;;;;;5031106;28;20194;-52
2023/08/13 08:02:31;;;;;;;3.63;3.30;;;;;;;;;;5030942;28;20245;-52
2023/08/13 08:04:57;;;;;;;3.37;3.03;;;;;;;;;;5031392;28;20205;-52
2023/08/13 08:07:25;;;;;;;3.70;3.20;;;;;;;;;;5031247;28;20201;-52
2023/08/13 08:09:51;;;;;;;3.43;2.87;;;;;;;;;;5030792;28;20164;-52
2023/08/13 08:12:17;;;;;;;7.20;4.07;;;;;;;;;;5031634;28;20182;-52
2023/08/13 08:14:43;;;;;;;4.80;2.97;;;;;;;;;;5031140;28;20193;-52
2023/08/13 08:17:09;;;;;;;5.47;3.30;;;;;;;;;;5031586;28;20521;-52
2023/08/13 08:19:35;;;;;;;5.60;3.23;;;;;;;;;;5030748;28;20197;-52
2023/08/13 08:22:02;;;;;;;5.30;2.57;;;;;;;;;;5030908;28;20316;-53
2023/08/13 08:24:28;;;;;;;3.47;2.77;;;;;;;;;;5030656;28;20178;-53
2023/08/13 08:26:54;;;;;;;4.20;2.57;;;;;;;;;;5031550;28;20185;-53
2023/08/13 08:29:20;;;;;;;2.70;2.27;;;;;;;;;;5030456;28;20177;-52
2023/08/13 08:31:46;;;;;;;4.73;3.00;;;;;;;;;;5031302;28;20414;-52
2023/08/13 08:34:12;;;;;;;3.50;2.50;;;;;;;;;;5030709;28;20194;-52
2023/08/13 08:36:38;;;;;;;3.47;2.73;;;;;;;;;;5030878;28;20178;-52
2023/08/13 08:39:05;;;;;;;2.67;2.47;;;;;;;;;;5029822;28;20189;-53
2023/08/13 08:41:32;;;;;;;3.73;2.77;;;;;;;;;;5031057;28;20205;-50
2023/08/13 08:44:01;;;;;;;4.13;2.80;;;;;;;;;;5030279;28;20221;-50
2023/08/13 08:46:28;;;;;;;4.33;2.33;;;;;;;;;;5013264;28;20178;-50
2023/08/13 08:48:54;;;;;;;3.43;2.47;;;;;;;;;;5029976;28;20218;-50
2023/08/13 08:51:23;;;;;;;3.50;2.47;;;;;;;;;;5030903;28;20178;-50
2023/08/13 08:53:50;;;;;;;5.97;2.80;;;;;;;;;;5029292;28;20174;-50
2023/08/13 08:56:16;;;;;;;3.07;2.43;;;;;;;;;;5030979;28;20189;-50
2023/08/13 08:58:42;;;;;;;2.43;2.20;;;;;;;;;;5030432;28;20209;-51
2023/08/13 09:01:08;;;;;;;3.23;2.60;;;;;;;;;;5030232;28;21119;-50
2023/08/13 09:03:34;;;;;;;3.00;2.77;;;;;;;;;;5029747;28;20197;-51
2023/08/13 09:06:00;;;;;;;4.00;2.63;;;;;;;;;;5030880;28;20619;-51
2023/08/13 09:08:26;;;;;;;2.30;2.10;;;;;;;;;;5029573;28;20175;-51
2023/08/13 09:10:53;;;;;;;3.53;2.50;;;;;;;;;;5012719;28;20218;-50
2023/08/13 09:13:19;;;;;;;4.10;2.30;;;;;;;;;;5029893;28;20185;-51
2023/08/13 09:15:48;;;;;;;3.80;2.57;;;;;;;;;;5030501;28;20732;-51
2023/08/13 09:18:14;;;;;;;3.50;2.60;;;;;;;;;;5029811;28;20191;-51
2023/08/13 09:20:44;;;;;;;2.53;2.33;;;;;;;;;;5029823;28;20239;-51
2023/08/13 09:23:10;;;;;;;2.57;2.37;;;;;;;;;;5029766;28;20673;-51
2023/08/13 09:25:37;;;;;;;3.80;2.50;;;;;;;;;;5029828;28;20638;-51
2023/08/13 09:28:04;;;;;;;4.03;2.40;;;;;;;;;;5030252;28;20543;-51
2023/08/13 09:30:32;;;;;;;4.27;2.47;;;;;;;;;;5029837;28;20257;-50
2023/08/13 09:32:59;;;;;;;4.93;2.53;;;;;;;;;;5029432;28;20189;-51
2023/08/13 09:35:26;;;;;;;4.23;2.67;;;;;;;;;;5029308;28;20307;-50
2023/08/13 09:37:52;;;;;;;4.70;2.63;;;;;;;;;;5029171;28;20232;-51
2023/08/13 09:40:19;;;;;;;5.30;2.50;;;;;;;;;;5011756;28;20186;-51
2023/08/13 09:42:46;;;;;;;3.83;2.50;;;;;;;;;;5030093;28;20207;-51
2023/08/13 09:45:13;;;;;;;4.67;2.33;;;;;;;;;;5029432;28;20202;-51
2023/08/13 09:47:41;;;;;;;3.43;2.40;;;;;;;;;;5029912;28;20232;-50
2023/08/13 09:50:08;;;;;;;2.83;2.20;;;;;;;;;;5029120;28;20194;-51
2023/08/13 09:52:35;;;;;;;3.03;2.60;;;;;;;;;;5029617;28;20180;-53
2023/08/13 09:55:06;;;;;;;4.63;2.70;;;;;;;;;;5029121;28;20644;-53
2023/08/13 09:57:33;;;;;;;4.67;2.67;;;;;;;;;;5029431;28;20197;-53
2023/08/13 09:59:59;;;;;;;3.10;2.13;;;;;;;;;;5006186;28;20195;-54
2023/08/13 10:02:26;;;;;;;4.27;2.50;;;;;;;;;;5009991;28;20912;-53
2023/08/13 10:04:53;;;;;;;3.20;2.73;;;;;;;;;;5025615;28;20214;-52
2023/08/13 10:07:20;;;;;;;5.37;3.00;;;;;;;;;;5029443;28;20202;-52
2023/08/13 10:09:46;;;;;;;3.87;2.43;;;;;;;;;;5028840;28;20180;-52
2023/08/13 10:12:13;;;;;;;3.17;2.40;;;;;;;;;;5029779;28;20190;-53
2023/08/13 10:14:39;;;;;;;5.07;2.60;;;;;;;;;;5029353;28;20194;-53
2023/08/13 10:17:06;;;;;;;3.33;2.53;;;;;;;;;;5028974;28;20223;-58
2023/08/13 10:19:35;;;;;;;4.57;3.20;;;;;;;;;;5028990;28;20662;-54
2023/08/13 10:22:01;;;;;;;4.20;2.50;;;;;;;;;;5028449;28;20206;-56
2023/08/13 10:24:30;;;;;;;4.50;2.73;;;;;;;;;;5031019;28;20176;-53
2023/08/13 10:26:59;;;;;;;4.93;2.80;;;;;;;;;;5033532;28;20258;-54
2023/08/13 10:29:25;;;;;;;3.67;2.70;;;;;;;;;;5033402;28;20207;-53
2023/08/13 10:31:55;;;;;;;5.03;2.40;;;;;;;;;;5032913;28;20294;-53
2023/08/13 10:34:40;;;;;;;2.70;2.50;;;;;;;;;;5032730;28;20242;-53
2023/08/13 10:37:20;;;;;;;4.00;2.70;;;;;;;;;;5032765;28;20731;-53
2023/08/13 10:39:46;;;;;;;4.70;2.70;;;;;;;;;;5032389;28;20185;-54
2023/08/13 10:42:36;;;;;;;4.40;2.70;;;;;;;;;;5033232;28;20614;-54
2023/08/13 10:45:02;;;;;;;4.30;2.90;;;;;;;;;;5032948;28;20260;-53
2023/08/13 10:47:41;;;;;;;2.90;2.57;;;;;;;;;;5033248;28;20542;-54
2023/08/13 10:50:07;;;;;;;3.30;2.60;;;;;;;;;;5032268;28;20192;-53
2023/08/13 10:52:33;;;;;;;3.87;2.63;;;;;;;;;;5032651;28;20645;-53
2023/08/13 10:55:00;;;;;;;3.97;2.70;;;;;;;;;;5032157;28;20180;-54
2023/08/13 10:57:28;;;;;;;2.93;2.50;;;;;;;;;;5033170;28;20708;-54
2023/08/13 10:59:55;;;;;;;3.87;2.80;;;;;;;;;;5026944;28;20226;-53
2023/08/13 11:02:21;;;;;;;4.53;2.40;;;;;;;;;;5012992;28;20216;-56
2023/08/13 11:04:47;;;;;;;3.97;2.60;;;;;;;;;;5027631;28;20187;-54
2023/08/13 11:07:14;;;;;;;4.47;2.30;;;;;;;;;;5032533;28;20188;-54
2023/08/13 11:09:42;;;;;;;6.33;3.43;;;;;;;;;;5032156;28;20550;-54
2023/08/13 11:12:09;;;;;;;3.00;2.70;;;;;;;;;;5032872;28;20197;-54
2023/08/13 11:14:35;;;;;;;4.03;2.57;;;;;;;;;;5032399;28;20281;-54
2023/08/13 11:17:01;;;;;;;6.03;2.97;;;;;;;;;;5032300;28;20202;-53
2023/08/13 11:19:27;;;;;;;4.63;2.87;;;;;;;;;;5032644;28;20277;-54
2023/08/13 11:21:54;;;;;;;3.00;2.60;;;;;;;;;;5032388;28;20582;-53
2023/08/13 11:24:21;;;;;;;3.53;2.63;;;;;;;;;;5032322;28;20969;-53
2023/08/13 11:26:49;;;;;;;2.90;2.70;;;;;;;;;;5032530;28;20170;-53
2023/08/13 11:29:18;;;;;;;2.93;2.30;;;;;;;;;;5014456;28;20190;-53
2023/08/13 11:31:44;;;;;;;3.50;2.70;;;;;;;;;;5032365;28;20593;-52
2023/08/13 11:34:11;;;;;;;3.77;2.50;;;;;;;;;;5032157;28;20281;-53
2023/08/13 11:36:37;;;;;;;4.03;2.73;;;;;;;;;;5013080;28;20650;-52
2023/08/13 11:39:03;;;;;;;5.82;2.88;;;;;;;;;;5031337;28;20484;-53
2023/08/13 11:41:30;;;;;;;3.50;2.70;;;;;;;;;;5032435;28;20536;-53
2023/08/13 11:43:56;;;;;;;2.70;2.50;;;;;;;;;;5031608;28;20194;-53
2023/08/13 11:46:22;;;;;;;3.87;2.50;;;;;;;;;;5032381;28;20170;-53
2023/08/13 11:48:55;;;;;;;3.97;2.30;;;;;;;;;;5032939;28;20718;-53
2023/08/13 11:51:25;;;;;;;5.87;2.87;;;;;;;;;;5037901;28;20174;-52
2023/08/13 11:53:52;;;;;;;5.03;3.30;;;;;;;;;;5030866;28;20182;-53
2023/08/13 11:56:20;;;;;;;5.13;2.80;;;;;;;;;;5020066;28;20236;-53
2023/08/13 11:58:46;;;;;;;3.93;2.70;;;;;;;;;;5033772;28;20177;-53
2023/08/13 12:01:13;;;;;;;4.87;3.00;;;;;;;;;;5013476;28;20549;-53
2023/08/13 12:03:44;;;;;;;5.03;2.70;;;;;;;;;;5031106;28;20163;-53
2023/08/13 12:06:11;;;;;;;4.23;2.70;;;;;;;;;;5031595;28;20182;-53
2023/08/13 12:08:38;;;;;;;3.83;2.20;;;;;;;;;;5030177;28;20236;-53
2023/08/13 12:11:05;;;;;;;4.50;3.10;;;;;;;;;;5031441;28;20182;-53
2023/08/13 12:13:41;;;;;;;5.50;3.07;;;;;;;;;;5031137;28;20182;-53
2023/08/13 12:16:07;;;;;;;4.27;2.67;;;;;;;;;;5031484;28;20164;-53
2023/08/13 12:18:33;;;;;;;3.40;3.10;;;;;;;;;;5031159;28;20179;-52
2023/08/13 12:20:59;;;;;;;4.63;3.10;;;;;;;;;;5031407;28;20178;-52
2023/08/13 12:23:25;;;;;;;3.43;3.13;;;;;;;;;;5030436;28;20229;-52
2023/08/13 12:25:51;;;;;;;3.60;3.07;;;;;;;;;;5030991;28;20201;-52
2023/08/13 12:28:17;;;;;;;4.90;3.23;;;;;;;;;;5031081;28;20178;-52
2023/08/13 12:30:44;;;;;;;6.20;2.93;;;;;;;;;;5031150;28;20674;-52
2023/08/13 12:33:10;;;;;;;3.67;3.10;;;;;;;;;;5031034;28;20182;-50
2023/08/13 12:35:36;;;;;;;4.90;2.87;;;;;;;;;;5030980;28;20629;-51
2023/08/13 12:38:03;;;;;;;6.00;3.60;;;;;;;;;;5030586;28;20229;-50
2023/08/13 12:40:29;;;;;;;4.73;3.13;;;;;;;;;;5030947;28;20178;-50
2023/08/13 12:42:55;;;;;;;3.50;2.80;;;;;;;;;;5030497;28;20214;-50
2023/08/13 12:45:21;;;;;;;4.27;3.83;;;;;;;;;;5031724;28;20163;-50
2023/08/13 12:47:47;;;;;;;6.37;4.00;;;;;;;;;;5031093;28;20205;-51
2023/08/13 12:50:13;;;;;;;5.13;2.70;;;;;;;;;;5030697;28;20166;-50
2023/08/13 12:52:39;;;;;;;3.80;2.97;;;;;;;;;;5012421;28;20189;-50
2023/08/13 12:55:06;;;;;;;5.33;2.90;;;;;;;;;;5029446;28;20179;-50
2023/08/13 12:57:32;;;;;;;5.37;3.00;;;;;;;;;;5030374;28;20182;-50
2023/08/13 12:59:58;;;;;;;4.43;3.33;;;;;;;;;;5030337;28;20329;-51
2023/08/13 13:02:24;;;;;;;5.30;3.23;;;;;;;;;;5030914;28;20664;-50
2023/08/13 13:04:50;;;;;;;4.13;2.93;;;;;;;;;;5030278;28;20178;-51
2023/08/13 13:07:16;;;;;;;3.00;2.80;;;;;;;;;;5011993;28;20888;-51
2023/08/13 13:09:43;;;;;;;4.10;3.27;;;;;;;;;;5029450;28;20194;-50
2023/08/13 13:12:09;;;;;;;5.87;3.10;;;;;;;;;;5030454;28;20209;-51
2023/08/13 13:14:35;;;;;;;5.03;3.17;;;;;;;;;;5030104;28;20190;-51
2023/08/13 13:17:01;;;;;;;4.53;2.97;;;;;;;;;;5030087;28;20186;-50
2023/08/13 13:19:27;;;;;;;3.63;2.67;;;;;;;;;;5030177;28;20652;-50
2023/08/13 13:21:53;;;;;;;7.43;3.03;;;;;;;;;;5029722;28;20194;-50
2023/08/13 13:24:19;;;;;;;4.13;3.10;;;;;;;;;;5029112;28;20212;-49
2023/08/13 13:26:45;;;;;;;5.83;2.97;;;;;;;;;;5030040;28;20170;-50
2023/08/13 13:29:11;;;;;;;4.50;3.03;;;;;;;;;;5029935;28;20174;-50
2023/08/13 13:31:37;;;;;;;3.40;3.10;;;;;;;;;;5029605;28;20626;-51
2023/08/13 13:34:03;;;;;;;5.53;2.90;;;;;;;;;;5029634;28;20185;-51
2023/08/13 13:36:29;;;;;;;5.20;3.17;;;;;;;;;;5029570;28;20232;-51
2023/08/13 13:38:56;;;;;;;5.47;3.00;;;;;;;;;;5028740;28;20182;-51
2023/08/13 13:41:22;;;;;;;4.40;2.90;;;;;;;;;;5029643;28;20181;-51
2023/08/13 13:43:48;;;;;;;3.77;3.40;;;;;;;;;;5029816;28;20170;-52
2023/08/13 13:46:14;;;;;;;5.83;3.07;;;;;;;;;;5012093;28;20585;-50
2023/08/13 13:48:40;;;;;;;4.20;3.63;;;;;;;;;;5011464;28;20170;-51
2023/08/13 13:51:06;;;;;;;3.87;3.17;;;;;;;;;;5029848;28;20202;-52
2023/08/13 13:53:32;;;;;;;3.30;2.73;;;;;;;;;;5028059;28;20630;-51
2023/08/13 13:55:58;;;;;;;3.67;3.00;;;;;;;;;;5029995;28;20224;-51
2023/08/13 13:58:24;;;;;;;4.80;2.90;;;;;;;;;;5029193;28;20633;-51
2023/08/13 14:00:50;;;;;;;3.63;2.50;;;;;;;;;;5016810;28;20217;-51
2023/08/13 14:03:18;;;;;;;3.63;3.33;;;;;;;;;;5024140;28;20206;-51
2023/08/13 14:05:44;;;;;;;4.10;3.20;;;;;;;;;;5029654;28;20294;-49
2023/08/13 14:08:10;;;;;;;4.10;2.77;;;;;;;;;;5028803;28;20682;-50
2023/08/13 14:10:36;;;;;;;5.30;2.90;;;;;;;;;;5028739;28;20193;-50
2023/08/13 14:13:02;;;;;;;3.97;2.60;;;;;;;;;;5029157;28;20190;-52
2023/08/13 14:15:28;;;;;;;4.97;2.97;;;;;;;;;;5029185;28;20268;-51
2023/08/13 14:17:54;;;;;;;3.20;2.90;;;;;;;;;;5011408;28;20295;-50
2023/08/13 14:20:20;;;;;;;3.23;2.77;;;;;;;;;;5028758;28;20278;-50
2023/08/13 14:22:46;;;;;;;3.60;3.20;;;;;;;;;;5028828;28;20300;-50
2023/08/13 14:25:12;;;;;;;3.20;2.93;;;;;;;;;;5028770;28;20176;-49
2023/08/13 14:27:39;;;;;;;4.17;2.97;;;;;;;;;;5029823;28;20652;-50
2023/08/13 14:30:05;;;;;;;3.33;2.33;;;;;;;;;;5029676;28;20624;-49
2023/08/13 14:32:32;;;;;;;3.87;3.00;;;;;;;;;;5029786;28;20179;-50
2023/08/13 14:34:58;;;;;;;3.87;3.10;;;;;;;;;;5026339;28;20287;-51
2023/08/13 14:37:25;;;;;;;3.00;2.50;;;;;;;;;;5028840;28;20239;-50
2023/08/13 14:39:51;;;;;;;3.20;2.53;;;;;;;;;;5028788;28;20167;-50